Time,TemperatureF,DewpointF,PressureIn,WindDirection,WindDirectionDegrees,WindSpeedMPH,WindSpeedGustMPH,Humidity,HourlyPrecipIn,Conditions,Clouds,dailyrainin,SoftwareType,DateUTC
2013-04-16 00:00:00,58.5,38.7,30.14,SSE,160,6.9,22.2,48,0.00,,BKN,0.00,VWS V14.00,2013-04-16 04:00:00,
2013-04-16 00:05:00,58.5,39.0,30.15,SSE,163,7.8,22.2,48,0.00,,BKN,0.00,VWS V14.00,2013-04-16 04:05:00,
2013-04-16 00:10:00,58.4,39.1,30.15,South,183,10.0,22.2,49,0.00,,BKN,0.00,VWS V14.00,2013-04-16 04:10:00,
2013-04-16 00:15:00,58.6,39.2,30.15,South,170,9.6,22.2,48,0.00,,BKN,0.00,VWS V14.00,2013-04-16 04:15:00,
2013-04-16 00:20:00,58.9,39.2,30.15,South,186,7.8,22.2,48,0.00,,BKN,0.00,VWS V14.00,2013-04-16 04:20:00,
2013-04-16 00:25:00,58.8,39.3,30.15,SSW,208,11.0,22.2,48,0.00,,BKN,0.00,VWS V14.00,2013-04-16 04:25:00,
2013-04-16 00:29:00,58.8,39.4,30.15,South,176,8.1,22.2,48,0.00,,BKN,0.00,VWS V14.00,2013-04-16 04:29:00,
2013-04-16 00:30:00,58.3,38.3,30.15,SE,125,7.7,15.6,47,0.00,,SCT,0.00,VWS V14.00,2013-04-16 04:30:00,
2013-04-16 00:35:00,58.4,39.3,30.15,SE,125,9.6,19.1,49,0.00,,BKN,0.00,VWS V14.00,2013-04-16 04:35:00,
2013-04-16 00:40:00,58.3,39.5,30.15,ESE,112,5.9,19.1,50,0.00,,BKN,0.00,VWS V14.00,2013-04-16 04:40:00,
2013-04-16 00:45:00,58.3,39.8,30.15,SSE,153,12.7,19.1,50,0.00,,BKN,0.00,VWS V14.00,2013-04-16 04:45:00,
2013-04-16 00:50:00,58.3,39.8,30.15,SSE,163,10.9,19.1,50,0.00,,BKN,0.00,VWS V14.00,2013-04-16 04:50:00,
2013-04-16 00:55:00,58.1,40.2,30.15,SW,219,8.9,21.1,51,0.00,,BKN,0.00,VWS V14.00,2013-04-16 04:55:00,
2013-04-16 01:00:00,58.2,40.5,30.15,SSW,198,12.1,13.0,52,0.00,,BKN,0.00,VWS V14.00,2013-04-16 05:00:00,
2013-04-16 01:05:00,58.2,40.4,30.15,SSE,165,9.6,22.0,52,0.00,,BKN,0.00,VWS V14.00,2013-04-16 05:05:00,
2013-04-16 01:10:00,58.1,40.7,30.15,SSE,155,7.5,26.7,52,0.00,,BKN,0.00,VWS V14.00,2013-04-16 05:10:00,
2013-04-16 01:15:00,57.9,40.7,30.15,SSW,193,12.4,26.7,52,0.00,,BKN,0.00,VWS V14.00,2013-04-16 05:15:00,
2013-04-16 01:20:00,58.1,41.1,30.16,South,177,5.8,26.7,53,0.00,,BKN,0.00,VWS V14.00,2013-04-16 05:20:00,
2013-04-16 01:25:00,57.8,40.8,30.16,SSW,201,6.5,26.7,53,0.00,,BKN,0.00,VWS V14.00,2013-04-16 05:25:00,
2013-04-16 01:30:00,57.6,41.1,30.16,SSE,166,10.7,14.6,54,0.00,,BKN,0.00,VWS V14.00,2013-04-16 05:30:00,
2013-04-16 01:35:00,57.5,41.1,30.16,SSW,200,8.3,19.0,54,0.00,,BKN,0.00,VWS V14.00,2013-04-16 05:35:00,
2013-04-16 01:40:00,57.3,41.1,30.16,SSW,201,8.1,19.0,55,0.00,,BKN,0.00,VWS V14.00,2013-04-16 05:40:00,
2013-04-16 01:45:00,57.2,41.3,30.16,WSW,245,9.3,19.0,55,0.00,,BKN,0.00,VWS V14.00,2013-04-16 05:45:00,
2013-04-16 01:50:00,57.3,41.4,30.15,SSE,163,7.1,19.0,55,0.00,,BKN,0.00,VWS V14.00,2013-04-16 05:50:00,
2013-04-16 01:55:00,57.2,41.5,30.15,South,183,7.8,19.0,56,0.00,,BKN,0.00,VWS V14.00,2013-04-16 05:55:00,
2013-04-16 02:00:00,57.1,41.6,30.15,South,184,12.3,12.3,56,0.00,,BKN,0.00,VWS V14.00,2013-04-16 06:00:00,
2013-04-16 02:05:00,57.2,41.9,30.15,South,188,6.0,13.1,56,0.00,,BKN,0.00,VWS V14.00,2013-04-16 06:05:00,
2013-04-16 02:10:00,57.4,41.8,30.15,South,176,4.5,13.1,56,0.00,,BKN,0.00,VWS V14.00,2013-04-16 06:10:00,
2013-04-16 02:15:00,57.5,41.8,30.15,South,188,8.1,13.1,56,0.00,,BKN,0.00,VWS V14.00,2013-04-16 06:15:00,
2013-04-16 02:20:00,57.8,42.1,30.15,South,191,4.2,13.1,56,0.00,,BKN,0.00,VWS V14.00,2013-04-16 06:20:00,
2013-04-16 02:25:00,57.7,42.1,30.15,ENE,65,7.8,13.6,56,0.00,,BKN,0.00,VWS V14.00,2013-04-16 06:25:00,
2013-04-16 02:30:00,57.8,42.1,30.15,SW,228,6.5,9.8,56,0.00,,BKN,0.00,VWS V14.00,2013-04-16 06:30:00,
2013-04-16 02:35:00,57.7,42.0,30.14,South,176,8.0,16.7,56,0.00,,BKN,0.00,VWS V14.00,2013-04-16 06:35:00,
2013-04-16 02:40:00,57.9,42.3,30.14,South,184,3.7,16.7,56,0.00,,BKN,0.00,VWS V14.00,2013-04-16 06:40:00,
2013-04-16 02:45:00,57.9,42.4,30.14,SSW,208,12.1,18.0,56,0.00,,BKN,0.00,VWS V14.00,2013-04-16 06:45:00,
2013-04-16 02:50:00,58.0,42.5,30.14,SSW,197,6.4,18.7,56,0.00,,BKN,0.00,VWS V14.00,2013-04-16 06:50:00,
2013-04-16 02:55:00,57.8,42.5,30.14,SW,224,8.5,18.7,56,0.00,,BKN,0.00,VWS V14.00,2013-04-16 06:55:00,
2013-04-16 03:00:00,57.8,42.7,30.14,SSE,149,9.1,11.9,57,0.00,,BKN,0.00,VWS V14.00,2013-04-16 07:00:00,
2013-04-16 03:05:00,57.9,42.6,30.14,South,188,8.5,15.8,57,0.00,,BKN,0.00,VWS V14.00,2013-04-16 07:05:00,
2013-04-16 03:10:00,58.0,42.7,30.14,WSW,240,6.1,19.9,57,0.00,,BKN,0.00,VWS V14.00,2013-04-16 07:10:00,
2013-04-16 03:16:00,58.0,42.9,30.14,South,179,3.2,19.9,57,0.00,,BKN,0.00,VWS V14.00,2013-04-16 07:16:00,
2013-04-16 03:21:00,57.8,42.9,30.14,SW,226,9.1,19.9,58,0.00,,BKN,0.00,VWS V14.00,2013-04-16 07:21:00,
2013-04-16 03:26:00,57.7,42.9,30.14,SSE,159,9.6,19.9,58,0.00,,BKN,0.00,VWS V14.00,2013-04-16 07:26:00,
2013-04-16 03:30:00,57.7,42.0,30.15,SSW,193,7.3,17.0,56,0.00,,SCT,0.00,VWS V14.00,2013-04-16 07:30:00,
2013-04-16 03:31:00,57.7,43.0,30.14,WSW,239,6.5,16.3,58,0.00,,BKN,0.00,VWS V14.00,2013-04-16 07:31:00,
2013-04-16 03:36:00,57.7,43.0,30.13,South,190,15.3,17.7,58,0.00,,BKN,0.00,VWS V14.00,2013-04-16 07:36:00,
2013-04-16 03:41:00,57.6,43.2,30.13,SSW,197,14.2,18.8,58,0.00,,BKN,0.00,VWS V14.00,2013-04-16 07:41:00,
2013-04-16 03:46:00,57.5,43.0,30.13,SSW,204,10.6,19.9,58,0.00,,BKN,0.00,VWS V14.00,2013-04-16 07:46:00,
2013-04-16 03:51:00,57.4,42.9,30.13,SE,142,9.6,19.9,58,0.00,,BKN,0.00,VWS V14.00,2013-04-16 07:51:00,
2013-04-16 03:56:00,57.7,43.3,30.13,SSW,212,4.9,20.6,58,0.00,,BKN,0.00,VWS V14.00,2013-04-16 07:56:00,
2013-04-16 04:00:00,57.9,42.5,30.14,SW,215,8.0,18.7,56,0.00,,SCT,0.00,VWS V14.00,2013-04-16 08:00:00,
2013-04-16 04:01:00,57.5,43.2,30.13,SSE,158,13.2,13.4,59,0.00,,BKN,0.00,VWS V14.00,2013-04-16 08:01:00,
2013-04-16 04:11:00,57.3,43.2,30.13,South,190,7.7,18.8,59,0.00,,BKN,0.00,VWS V14.00,2013-04-16 08:11:00,
2013-04-16 04:16:00,57.6,43.2,30.13,SSE,155,14.4,18.8,59,0.00,,BKN,0.00,VWS V14.00,2013-04-16 08:16:00,
2013-04-16 04:21:00,57.5,43.3,30.13,SW,219,8.5,18.8,59,0.00,,BKN,0.00,VWS V14.00,2013-04-16 08:21:00,
2013-04-16 04:26:00,57.3,43.1,30.12,South,174,15.1,18.8,59,0.00,,BKN,0.00,VWS V14.00,2013-04-16 08:26:00,
2013-04-16 04:30:00,57.6,42.8,30.14,SSE,148,6.8,19.9,58,0.00,,SCT,0.00,VWS V14.00,2013-04-16 08:30:00,
2013-04-16 04:31:00,57.3,43.2,30.12,SSE,153,9.3,13.7,59,0.00,,BKN,0.00,VWS V14.00,2013-04-16 08:31:00,
2013-04-16 04:36:00,57.4,43.6,30.13,SSW,195,6.5,16.9,60,0.00,,BKN,0.00,VWS V14.00,2013-04-16 08:36:00,
2013-04-16 04:41:00,57.2,43.1,30.12,SW,232,5.9,18.1,59,0.00,,BKN,0.00,VWS V14.00,2013-04-16 08:41:00,
2013-04-16 04:46:00,57.3,43.4,30.13,SSW,194,6.2,18.1,60,0.00,,BKN,0.00,VWS V14.00,2013-04-16 08:46:00,
2013-04-16 04:51:00,57.1,43.3,30.13,South,169,8.2,18.9,60,0.00,,BKN,0.00,VWS V14.00,2013-04-16 08:51:00,
2013-04-16 04:56:00,57.0,43.3,30.13,SSW,195,8.6,18.9,60,0.00,,BKN,0.00,VWS V14.00,2013-04-16 08:56:00,
2013-04-16 05:00:00,57.5,43.4,30.13,WSW,242,7.6,20.6,59,0.00,,SCT,0.00,VWS V14.00,2013-04-16 09:00:00,
2013-04-16 05:01:00,57.0,43.3,30.12,SW,217,6.9,16.5,60,0.00,,BKN,0.00,VWS V14.00,2013-04-16 09:01:00,
2013-04-16 05:06:00,56.8,43.2,30.13,South,176,8.5,16.5,60,0.00,,BKN,0.00,VWS V14.00,2013-04-16 09:06:00,
2013-04-16 05:11:00,56.9,43.4,30.12,SSW,198,5.5,16.5,60,0.00,,BKN,0.00,VWS V14.00,2013-04-16 09:11:00,
2013-04-16 05:16:00,56.8,43.5,30.12,SSE,148,7.8,16.5,61,0.00,,BKN,0.00,VWS V14.00,2013-04-16 09:16:00,
2013-04-16 05:21:00,56.8,43.6,30.12,South,184,9.7,16.5,61,0.00,,BKN,0.00,VWS V14.00,2013-04-16 09:21:00,
2013-04-16 05:26:00,56.8,43.5,30.12,SSW,200,7.7,18.3,61,0.00,,BKN,0.00,VWS V14.00,2013-04-16 09:26:00,
2013-04-16 05:30:00,57.3,43.2,30.12,SSW,208,6.0,19.8,59,0.00,,SCT,0.00,VWS V14.00,2013-04-16 09:30:00,
2013-04-16 05:31:00,56.7,43.5,30.12,South,169,9.8,19.9,61,0.00,,BKN,0.00,VWS V14.00,2013-04-16 09:31:00,
2013-04-16 05:36:00,56.7,43.6,30.11,South,187,8.3,19.9,62,0.00,,BKN,0.00,VWS V14.00,2013-04-16 09:36:00,
2013-04-16 05:41:00,56.7,43.5,30.11,SW,222,5.7,22.6,61,0.00,,BKN,0.00,VWS V14.00,2013-04-16 09:41:00,
2013-04-16 05:46:00,56.7,43.5,30.11,SW,214,5.3,22.7,61,0.00,,BKN,0.00,VWS V14.00,2013-04-16 09:46:00,
2013-04-16 05:51:00,56.6,43.4,30.11,South,191,11.1,24.7,61,0.00,,BKN,0.00,VWS V14.00,2013-04-16 09:51:00,
2013-04-16 05:56:00,56.6,43.8,30.10,South,190,7.9,24.7,62,0.00,,BKN,0.00,VWS V14.00,2013-04-16 09:56:00,
2013-04-16 06:00:00,57.2,43.4,30.12,SSE,167,6.0,18.9,60,0.00,,SCT,0.00,VWS V14.00,2013-04-16 10:00:00,
2013-04-16 06:01:00,56.4,43.6,30.10,South,183,4.7,21.7,62,0.00,,BKN,0.00,VWS V14.00,2013-04-16 10:01:00,
2013-04-16 06:06:00,56.4,43.7,30.10,South,180,9.1,21.7,62,0.00,,BKN,0.00,VWS V14.00,2013-04-16 10:06:00,
2013-04-16 06:12:00,56.4,43.5,30.10,SW,215,9.3,21.7,62,0.00,,BKN,0.00,VWS V14.00,2013-04-16 10:12:00,
2013-04-16 06:17:00,56.6,43.7,30.10,SW,215,8.1,21.7,62,0.00,,BKN,0.00,VWS V14.00,2013-04-16 10:17:00,
2013-04-16 06:22:00,56.4,43.8,30.10,South,174,5.5,21.7,63,0.00,,BKN,0.00,VWS V14.00,2013-04-16 10:22:00,
2013-04-16 06:27:00,56.4,43.7,30.10,South,184,4.8,21.7,62,0.00,,BKN,0.00,VWS V14.00,2013-04-16 10:27:00,
2013-04-16 06:30:00,56.7,43.6,30.12,South,173,7.6,18.3,62,0.00,,SCT,0.00,VWS V14.00,2013-04-16 10:30:00,
2013-04-16 06:32:00,56.3,43.5,30.10,SW,219,11.1,26.7,62,0.00,,BKN,0.00,VWS V14.00,2013-04-16 10:32:00,
2013-04-16 06:37:00,56.4,43.6,30.10,SSW,195,14.5,26.7,62,0.00,,BKN,0.00,VWS V14.00,2013-04-16 10:37:00,
2013-04-16 06:42:00,56.3,43.6,30.10,South,173,4.2,26.7,62,0.00,,BKN,0.00,VWS V14.00,2013-04-16 10:42:00,
2013-04-16 06:47:00,56.3,43.5,30.10,SW,217,7.7,26.7,62,0.00,,BKN,0.00,VWS V14.00,2013-04-16 10:47:00,
2013-04-16 06:52:00,56.3,43.5,30.10,SSW,211,6.4,26.7,62,0.00,,BKN,0.00,VWS V14.00,2013-04-16 10:52:00,
2013-04-16 06:57:00,56.1,43.7,30.10,SSW,202,9.3,26.7,63,0.00,,BKN,0.00,VWS V14.00,2013-04-16 10:57:00,
2013-04-16 07:00:00,56.5,43.7,30.11,SSW,197,12.3,24.7,62,0.00,,SCT,0.00,VWS V14.00,2013-04-16 11:00:00,
2013-04-16 07:02:00,56.1,43.5,30.10,SW,218,10.9,21.8,63,0.00,,BKN,0.00,VWS V14.00,2013-04-16 11:02:00,
2013-04-16 07:07:00,56.2,43.7,30.10,SSW,198,10.2,21.8,63,0.00,,BKN,0.00,VWS V14.00,2013-04-16 11:07:00,
2013-04-16 07:12:00,56.1,43.8,30.09,SW,224,7.9,21.8,63,0.00,,BKN,0.00,VWS V14.00,2013-04-16 11:12:00,
2013-04-16 07:17:00,55.7,44.0,30.09,SW,221,6.5,21.8,65,0.00,,OVC,0.00,VWS V14.00,2013-04-16 11:17:00,
2013-04-16 07:22:00,55.8,43.9,30.09,SW,225,15.0,21.8,64,0.00,,OVC,0.00,VWS V14.00,2013-04-16 11:22:00,
2013-04-16 07:27:00,55.9,43.9,30.09,South,174,5.2,21.8,64,0.00,,OVC,0.00,VWS V14.00,2013-04-16 11:27:00,
2013-04-16 07:30:00,56.3,43.7,30.10,South,187,14.5,21.7,62,0.00,,SCT,0.00,VWS V14.00,2013-04-16 11:30:00,
2013-04-16 07:32:00,56.1,43.9,30.09,SSW,204,14.5,20.1,63,0.00,,OVC,0.00,VWS V14.00,2013-04-16 11:32:00,
2013-04-16 07:37:00,56.1,43.9,30.09,South,176,7.7,20.1,63,0.00,,OVC,0.00,VWS V14.00,2013-04-16 11:37:00,
2013-04-16 07:42:00,56.2,43.9,30.09,SSE,165,13.0,20.1,63,0.00,,OVC,0.00,VWS V14.00,2013-04-16 11:42:00,
2013-04-16 07:47:00,56.2,44.0,30.09,South,173,13.9,20.1,64,0.00,,OVC,0.00,VWS V14.00,2013-04-16 11:47:00,
2013-04-16 07:52:00,56.3,44.2,30.08,South,177,10.5,20.1,64,0.00,,OVC,0.00,VWS V14.00,2013-04-16 11:52:00,
2013-04-16 07:57:00,56.3,43.8,30.08,SW,225,9.7,20.1,63,0.00,,OVC,0.00,VWS V14.00,2013-04-16 11:57:00,
2013-04-16 08:00:00,56.2,43.6,30.10,SSW,211,18.1,26.7,63,0.00,,SCT,0.00,VWS V14.00,2013-04-16 12:00:00,
2013-04-16 08:02:00,56.3,43.8,30.08,SSW,197,14.6,24.1,63,0.00,,OVC,0.00,VWS V14.00,2013-04-16 12:02:00,
2013-04-16 08:07:00,56.4,44.0,30.08,SSW,195,11.4,27.8,63,0.00,,OVC,0.00,VWS V14.00,2013-04-16 12:07:00,
2013-04-16 08:12:00,56.5,44.0,30.08,SSE,158,15.3,27.8,63,0.00,,OVC,0.00,VWS V14.00,2013-04-16 12:12:00,
2013-04-16 08:17:00,56.7,44.1,30.07,SE,146,9.1,27.8,63,0.00,,OVC,0.00,VWS V14.00,2013-04-16 12:17:00,
2013-04-16 08:22:00,56.8,44.3,30.07,South,184,16.5,27.8,63,0.00,,OVC,0.00,VWS V14.00,2013-04-16 12:22:00,
2013-04-16 08:27:00,56.8,43.8,30.07,SW,221,15.3,27.8,62,0.00,,OVC,0.00,VWS V14.00,2013-04-16 12:27:00,
2013-04-16 08:30:00,56.0,43.9,30.09,SSW,193,9.6,21.8,64,0.00,,SCT,0.00,VWS V14.00,2013-04-16 12:30:00,
2013-04-16 08:32:00,57.0,44.1,30.07,SW,225,9.4,19.7,62,0.00,,OVC,0.00,VWS V14.00,2013-04-16 12:32:00,
2013-04-16 08:37:00,57.2,44.4,30.07,SSW,197,11.0,21.5,62,0.00,,OVC,0.00,VWS V14.00,2013-04-16 12:37:00,
2013-04-16 08:42:00,57.3,44.2,30.07,SSW,194,8.4,21.5,62,0.00,,OVC,0.00,VWS V14.00,2013-04-16 12:42:00,
2013-04-16 08:47:00,57.6,44.3,30.07,SSE,160,11.4,22.7,61,0.00,,OVC,0.00,VWS V14.00,2013-04-16 12:47:00,
2013-04-16 08:52:00,57.7,44.0,30.06,South,170,13.4,23.6,60,0.00,,OVC,0.00,VWS V14.00,2013-04-16 12:52:00,
2013-04-16 08:57:00,57.9,44.5,30.06,South,191,10.1,33.9,61,0.00,,OVC,0.00,VWS V14.00,2013-04-16 12:57:00,
2013-04-16 09:00:00,56.2,43.8,30.08,SW,226,12.5,26.9,63,0.00,,SCT,0.00,VWS V14.00,2013-04-16 13:00:00,
2013-04-16 09:02:00,58.0,44.8,30.06,SE,127,10.6,27.0,61,0.00,,OVC,0.00,VWS V14.00,2013-04-16 13:02:00,
2013-04-16 09:07:00,58.2,45.1,30.05,SW,225,15.2,27.0,62,0.00,,OVC,0.00,VWS V14.00,2013-04-16 13:07:00,
2013-04-16 09:12:00,58.3,44.8,30.05,SSW,198,13.0,27.0,61,0.00,,OVC,0.00,VWS V14.00,2013-04-16 13:12:00,
2013-04-16 09:17:00,58.7,45.2,30.05,South,173,15.5,27.0,61,0.00,,OVC,0.00,VWS V14.00,2013-04-16 13:17:00,
2013-04-16 09:22:00,58.7,45.1,30.05,SSW,193,11.6,27.0,60,0.00,,OVC,0.00,VWS V14.00,2013-04-16 13:22:00,
2013-04-16 09:27:00,58.7,45.3,30.04,SW,219,26.2,34.7,61,0.00,,OVC,0.00,VWS V14.00,2013-04-16 13:27:00,
2013-04-16 09:30:00,56.8,44.0,30.07,SW,214,9.7,27.8,62,0.00,,SCT,0.00,VWS V14.00,2013-04-16 13:30:00,
2013-04-16 09:32:00,58.6,45.0,30.04,SW,226,10.7,22.5,61,0.00,,OVC,0.00,VWS V14.00,2013-04-16 13:32:00,
2013-04-16 09:37:00,58.7,45.6,30.04,South,177,19.3,24.1,62,0.00,,OVC,0.00,VWS V14.00,2013-04-16 13:37:00,
2013-04-16 09:42:00,58.9,45.6,30.04,SSW,207,8.6,24.1,61,0.00,,OVC,0.00,VWS V14.00,2013-04-16 13:42:00,
2013-04-16 09:47:00,59.3,46.2,30.03,South,179,7.5,24.5,62,0.00,,OVC,0.00,VWS V14.00,2013-04-16 13:47:00,
2013-04-16 09:52:00,59.4,45.9,30.03,SSE,150,16.7,24.7,61,0.00,,OVC,0.00,VWS V14.00,2013-04-16 13:52:00,
2013-04-16 09:57:00,59.7,46.0,30.03,SSE,148,21.8,26.3,60,0.00,,OVC,0.00,VWS V14.00,2013-04-16 13:57:00,
2013-04-16 10:00:00,58.0,44.6,30.06,South,176,20.5,33.9,61,0.00,,SCT,0.00,VWS V14.00,2013-04-16 14:00:00,
2013-04-16 10:02:00,59.6,45.9,30.03,SSW,210,14.5,22.4,60,0.00,,OVC,0.00,VWS V14.00,2013-04-16 14:02:00,
2013-04-16 10:07:00,59.7,46.2,30.02,SSE,152,12.6,22.4,61,0.00,,OVC,0.00,VWS V14.00,2013-04-16 14:07:00,
2013-04-16 10:12:00,59.7,46.3,30.02,SSW,200,7.8,23.2,61,0.00,,OVC,0.00,VWS V14.00,2013-04-16 14:12:00,
2013-04-16 10:17:00,59.8,46.6,30.02,WSW,242,6.7,23.2,62,0.00,,OVC,0.00,VWS V14.00,2013-04-16 14:17:00,
2013-04-16 10:22:00,59.8,46.7,30.02,SSW,198,11.6,23.2,62,0.00,,OVC,0.00,VWS V14.00,2013-04-16 14:22:00,
2013-04-16 10:27:00,59.7,46.6,30.02,SSW,207,11.5,23.2,62,0.00,,OVC,0.00,VWS V14.00,2013-04-16 14:27:00,
2013-04-16 10:30:00,58.5,45.0,30.04,SSE,160,10.3,34.7,61,0.00,,SCT,0.00,VWS V14.00,2013-04-16 14:30:00,
2013-04-16 10:32:00,59.7,46.9,30.02,SSW,210,16.5,23.7,62,0.00,,OVC,0.00,VWS V14.00,2013-04-16 14:32:00,
2013-04-16 10:37:00,59.8,46.7,30.03,SSW,201,6.6,23.7,62,0.00,,OVC,0.00,VWS V14.00,2013-04-16 14:37:00,
2013-04-16 10:42:00,59.8,46.8,30.02,SW,229,7.8,23.7,62,0.00,,OVC,0.00,VWS V14.00,2013-04-16 14:42:00,
2013-04-16 10:47:00,59.9,47.1,30.01,SSW,211,7.6,23.7,62,0.00,,OVC,0.00,VWS V14.00,2013-04-16 14:47:00,
2013-04-16 10:52:00,60.1,47.0,30.01,SSW,193,7.4,25.2,62,0.00,,OVC,0.00,VWS V14.00,2013-04-16 14:52:00,
2013-04-16 10:57:00,60.3,47.2,30.01,South,187,11.2,25.2,62,0.00,,OVC,0.00,VWS V14.00,2013-04-16 14:57:00,
2013-04-16 11:00:00,59.7,46.0,30.03,South,188,10.3,26.3,60,0.00,,SCT,0.00,VWS V14.00,2013-04-16 15:00:00,
2013-04-16 11:02:00,60.0,47.2,30.01,SSW,197,14.0,23.2,62,0.00,,OVC,0.00,VWS V14.00,2013-04-16 15:02:00,
2013-04-16 11:07:00,60.1,47.3,30.01,South,188,4.9,24.3,62,0.00,,OVC,0.00,VWS V14.00,2013-04-16 15:07:00,
2013-04-16 11:12:00,60.1,47.2,30.01,South,172,17.5,26.5,62,0.00,,OVC,0.00,VWS V14.00,2013-04-16 15:12:00,
2013-04-16 11:17:00,59.9,47.2,30.01,SSW,200,11.4,26.5,63,0.00,,OVC,0.00,VWS V14.00,2013-04-16 15:17:00,
2013-04-16 11:22:00,59.9,47.4,30.01,SSE,148,15.0,26.5,63,0.00,,OVC,0.00,VWS V14.00,2013-04-16 15:22:00,
2013-04-16 11:27:00,59.9,47.3,30.01,SW,215,12.9,26.5,63,0.00,,OVC,0.00,VWS V14.00,2013-04-16 15:27:00,
2013-04-16 11:30:00,59.8,46.6,30.02,SSW,210,7.8,23.2,62,0.00,,SCT,0.00,VWS V14.00,2013-04-16 15:30:00,
2013-04-16 11:32:00,60.0,47.8,30.00,WSW,246,5.5,15.7,64,0.00,,OVC,0.00,VWS V14.00,2013-04-16 15:32:00,
2013-04-16 11:37:00,59.8,48.2,30.00,South,170,11.8,19.5,65,0.00,,OVC,0.00,VWS V14.00,2013-04-16 15:37:00,
2013-04-16 11:47:00,58.4,49.5,30.00,SW,221,11.0,22.6,72,0.00,,OVC,0.00,VWS V14.00,2013-04-16 15:47:00,
2013-04-16 11:52:00,58.1,49.7,30.00,South,184,11.9,22.6,74,0.00,,OVC,0.00,VWS V14.00,2013-04-16 15:52:00,
2013-04-16 11:57:00,58.1,49.9,30.01,SSW,195,9.1,22.6,74,0.00,,OVC,0.00,VWS V14.00,2013-04-16 15:57:00,
2013-04-16 12:00:00,60.1,47.1,30.01,SSE,152,15.5,25.2,62,0.00,,SCT,0.00,VWS V14.00,2013-04-16 16:00:00,
2013-04-16 12:02:00,57.9,50.4,30.01,SSW,198,10.6,15.7,76,0.00,,OVC,0.00,VWS V14.00,2013-04-16 16:02:00,
2013-04-16 12:07:00,57.4,50.8,30.01,SW,214,9.7,17.6,78,0.01,,OVC,0.01,VWS V14.00,2013-04-16 16:07:00,
2013-04-16 12:12:00,56.7,50.8,30.01,SW,215,15.8,21.2,80,0.01,,OVC,0.01,VWS V14.00,2013-04-16 16:12:00,
2013-04-16 12:17:00,56.3,51.3,30.01,South,187,11.3,21.2,83,0.02,,OVC,0.02,VWS V14.00,2013-04-16 16:17:00,
2013-04-16 12:23:00,56.0,51.5,30.01,SSW,200,6.9,21.2,85,0.02,,OVC,0.02,VWS V14.00,2013-04-16 16:23:00,
2013-04-16 12:28:00,55.9,51.5,30.01,SW,218,8.0,21.2,85,0.02,,OVC,0.02,VWS V14.00,2013-04-16 16:28:00,
2013-04-16 12:30:00,59.9,47.5,30.01,SW,224,8.5,26.5,64,0.00,,SCT,0.00,VWS V14.00,2013-04-16 16:30:00,
2013-04-16 12:33:00,56.1,51.6,30.01,SW,226,6.3,15.7,85,0.01,,OVC,0.02,VWS V14.00,2013-04-16 16:33:00,
2013-04-16 12:38:00,56.2,51.5,30.01,SW,215,7.6,15.8,84,0.01,,OVC,0.02,VWS V14.00,2013-04-16 16:38:00,
2013-04-16 12:43:00,56.2,51.4,30.01,SE,142,15.8,18.6,84,0.01,,OVC,0.02,VWS V14.00,2013-04-16 16:43:00,
2013-04-16 12:48:00,56.1,51.3,30.00,South,169,12.9,22.2,84,0.01,,OVC,0.02,VWS V14.00,2013-04-16 16:48:00,
2013-04-16 12:53:00,56.1,51.6,30.00,SSW,197,17.3,22.2,85,0.01,,OVC,0.02,VWS V14.00,2013-04-16 16:53:00,
2013-04-16 12:58:00,56.0,51.5,30.00,SSW,195,5.7,22.2,85,0.01,,OVC,0.02,VWS V14.00,2013-04-16 16:58:00,
2013-04-16 13:00:00,58.1,50.0,30.01,South,191,8.6,22.6,74,0.00,,SCT,0.00,VWS V14.00,2013-04-16 17:00:00,
2013-04-16 13:03:00,56.1,51.5,30.00,SE,143,16.3,16.5,84,0.01,,OVC,0.02,VWS V14.00,2013-04-16 17:03:00,
2013-04-16 13:08:00,56.3,51.4,29.99,SE,124,10.7,20.6,84,0.01,,OVC,0.02,VWS V14.00,2013-04-16 17:08:00,
2013-04-16 13:13:00,56.5,51.3,29.99,SSW,210,7.1,21.4,83,0.01,,OVC,0.02,VWS V14.00,2013-04-16 17:13:00,
2013-04-16 13:18:00,56.9,51.6,29.99,SW,218,6.0,21.4,82,0.01,,OVC,0.02,VWS V14.00,2013-04-16 17:18:00,
2013-04-16 13:23:00,57.0,51.4,29.99,SSW,204,15.4,21.4,81,0.01,,OVC,0.02,VWS V14.00,2013-04-16 17:23:00,
2013-04-16 13:28:00,57.3,51.4,29.98,South,169,8.8,29.5,81,0.01,,OVC,0.02,VWS V14.00,2013-04-16 17:28:00,
2013-04-16 13:30:00,55.9,51.5,30.01,South,177,9.4,21.2,85,0.01,,SCT,0.02,VWS V14.00,2013-04-16 17:30:00,
2013-04-16 13:33:00,57.4,51.4,29.99,SSW,211,6.3,22.3,80,0.01,,OVC,0.02,VWS V14.00,2013-04-16 17:33:00,
2013-04-16 13:38:00,57.7,51.4,29.99,South,180,9.6,22.3,79,0.00,,OVC,0.02,VWS V14.00,2013-04-16 17:38:00,
2013-04-16 13:43:00,57.8,51.4,29.98,SSW,202,10.4,22.3,79,0.00,,OVC,0.02,VWS V14.00,2013-04-16 17:43:00,
2013-04-16 13:48:00,58.0,51.5,29.98,South,188,13.7,22.3,79,0.00,,OVC,0.02,VWS V14.00,2013-04-16 17:48:00,
2013-04-16 13:53:00,58.1,51.3,29.98,South,173,10.4,24.0,78,0.00,,OVC,0.02,VWS V14.00,2013-04-16 17:53:00,
2013-04-16 13:58:00,58.2,51.4,29.98,South,191,11.1,24.0,78,0.00,,OVC,0.02,VWS V14.00,2013-04-16 17:58:00,
2013-04-16 14:00:00,56.0,51.4,30.00,South,181,12.0,22.2,84,0.01,,SCT,0.02,VWS V14.00,2013-04-16 18:00:00,
2013-04-16 14:03:00,58.2,51.5,29.98,SE,145,14.0,24.4,78,0.00,,OVC,0.02,VWS V14.00,2013-04-16 18:03:00,
2013-04-16 14:08:00,58.1,51.9,29.98,SSE,159,14.5,24.4,80,0.00,,OVC,0.02,VWS V14.00,2013-04-16 18:08:00,
2013-04-16 14:13:00,57.9,51.8,29.98,SSW,207,16.3,24.4,80,0.00,,OVC,0.02,VWS V14.00,2013-04-16 18:13:00,
2013-04-16 14:18:00,57.8,52.3,29.98,SW,222,12.0,24.4,82,0.00,,OVC,0.02,VWS V14.00,2013-04-16 18:18:00,
2013-04-16 14:23:00,57.8,52.5,29.98,SW,219,10.5,24.4,82,0.00,,OVC,0.02,VWS V14.00,2013-04-16 18:23:00,
2013-04-16 14:28:00,57.5,52.6,29.98,South,188,8.8,24.4,84,0.00,,OVC,0.02,VWS V14.00,2013-04-16 18:28:00,
2013-04-16 14:30:00,57.3,51.2,29.98,SW,221,11.9,29.5,80,0.00,,SCT,0.02,VWS V14.00,2013-04-16 18:30:00,
2013-04-16 14:33:00,57.7,52.9,29.98,SW,221,8.0,17.1,84,0.00,,OVC,0.02,VWS V14.00,2013-04-16 18:33:00,
2013-04-16 14:38:00,57.6,52.9,29.98,SSW,207,13.7,19.9,84,0.00,,OVC,0.02,VWS V14.00,2013-04-16 18:38:00,
2013-04-16 14:43:00,57.6,53.0,29.99,SSW,210,17.5,21.4,85,0.00,,OVC,0.02,VWS V14.00,2013-04-16 18:43:00,
2013-04-16 14:48:00,57.7,53.3,29.99,SSW,193,8.8,21.4,85,0.00,,OVC,0.02,VWS V14.00,2013-04-16 18:48:00,
2013-04-16 14:53:00,57.7,53.3,29.98,SSW,205,19.5,21.4,85,0.00,,OVC,0.02,VWS V14.00,2013-04-16 18:53:00,
2013-04-16 14:58:00,57.8,53.1,29.99,SW,219,11.7,21.4,84,0.00,,OVC,0.02,VWS V14.00,2013-04-16 18:58:00,
2013-04-16 15:00:00,58.1,51.4,29.98,SSW,204,20.2,24.0,78,0.00,,SCT,0.02,VWS V14.00,2013-04-16 19:00:00,
2013-04-16 15:03:00,57.9,53.3,29.98,SW,225,8.5,17.0,85,0.00,,OVC,0.02,VWS V14.00,2013-04-16 19:03:00,
2013-04-16 15:08:00,57.9,53.2,29.98,SW,215,10.7,17.0,84,0.00,,OVC,0.02,VWS V14.00,2013-04-16 19:08:00,
2013-04-16 15:13:00,58.1,53.3,29.98,SW,221,8.5,17.0,84,0.00,,OVC,0.02,VWS V14.00,2013-04-16 19:13:00,
2013-04-16 15:18:00,58.0,53.1,29.97,SSW,195,8.6,17.0,84,0.00,,OVC,0.02,VWS V14.00,2013-04-16 19:18:00,
2013-04-16 15:23:00,58.1,53.2,29.98,SW,233,10.6,17.0,84,0.00,,OVC,0.02,VWS V14.00,2013-04-16 19:23:00,
2013-04-16 15:28:00,58.2,53.3,29.98,SSW,207,5.7,17.8,84,0.00,,OVC,0.02,VWS V14.00,2013-04-16 19:28:00,
2013-04-16 15:30:00,57.5,52.7,29.98,SW,229,9.6,24.4,84,0.00,,SCT,0.02,VWS V14.00,2013-04-16 19:30:00,
2013-04-16 15:33:00,58.3,53.4,29.97,SSW,210,6.3,17.7,84,0.00,,OVC,0.02,VWS V14.00,2013-04-16 19:33:00,
2013-04-16 15:38:00,58.3,53.4,29.98,SW,214,8.1,17.7,84,0.00,,OVC,0.02,VWS V14.00,2013-04-16 19:38:00,
2013-04-16 15:43:00,58.4,53.7,29.98,SW,231,8.0,17.7,84,0.00,,OVC,0.02,VWS V14.00,2013-04-16 19:43:00,
2013-04-16 15:48:00,58.4,53.9,29.97,SW,221,12.6,19.9,85,0.00,,OVC,0.02,VWS V14.00,2013-04-16 19:48:00,
2013-04-16 15:53:00,58.6,54.1,29.97,SSW,207,9.5,19.9,85,0.00,,OVC,0.02,VWS V14.00,2013-04-16 19:53:00,
2013-04-16 15:58:00,58.8,54.2,29.97,SW,235,6.5,19.9,85,0.00,,OVC,0.02,VWS V14.00,2013-04-16 19:58:00,
2013-04-16 16:00:00,57.9,53.2,29.99,WSW,248,8.3,21.4,84,0.00,,SCT,0.02,VWS V14.00,2013-04-16 20:00:00,
2013-04-16 16:03:00,59.0,54.1,29.97,SW,236,9.4,18.5,84,0.00,,OVC,0.02,VWS V14.00,2013-04-16 20:03:00,
2013-04-16 16:08:00,59.2,54.1,29.97,SSW,194,8.1,18.5,83,0.00,,OVC,0.02,VWS V14.00,2013-04-16 20:08:00,
2013-04-16 16:13:00,59.2,54.6,29.97,West,259,5.8,18.5,85,0.00,,OVC,0.02,VWS V14.00,2013-04-16 20:13:00,
2013-04-16 16:18:00,58.7,55.0,29.97,West,263,8.7,18.5,87,0.02,,OVC,0.04,VWS V14.00,2013-04-16 20:18:00,
2013-04-16 16:23:00,58.2,55.2,29.98,WNW,294,8.6,18.5,90,0.04,,OVC,0.06,VWS V14.00,2013-04-16 20:23:00,
2013-04-16 16:28:00,56.9,54.6,29.99,West,262,13.9,18.5,92,0.05,,OVC,0.08,VWS V14.00,2013-04-16 20:28:00,
2013-04-16 16:30:00,58.2,53.3,29.98,South,191,5.6,17.8,84,0.00,,SCT,0.02,VWS V14.00,2013-04-16 20:30:00,
2013-04-16 16:33:00,55.9,54.1,29.99,SW,222,10.9,15.9,94,0.07,,OVC,0.10,VWS V14.00,2013-04-16 20:33:00,
2013-04-16 16:38:00,55.5,53.8,29.99,SW,225,7.0,18.3,94,0.07,,OVC,0.11,VWS V14.00,2013-04-16 20:38:00,
2013-04-16 16:43:00,55.0,53.5,30.00,WSW,243,11.8,18.3,94,0.08,,OVC,0.12,VWS V14.00,2013-04-16 20:43:00,
2013-04-16 16:48:00,54.7,53.2,30.00,West,260,11.0,21.7,95,0.07,,OVC,0.12,VWS V14.00,2013-04-16 20:48:00,
2013-04-16 16:53:00,54.7,53.3,30.00,SW,217,10.5,21.7,95,0.07,,OVC,0.13,VWS V14.00,2013-04-16 20:53:00,
2013-04-16 16:58:00,54.8,53.3,29.99,WSW,239,11.0,21.7,95,0.07,,OVC,0.13,VWS V14.00,2013-04-16 20:58:00,
2013-04-16 17:00:00,58.8,54.2,29.97,WSW,250,6.5,19.9,85,0.00,,SCT,0.02,VWS V14.00,2013-04-16 21:00:00,
2013-04-16 17:03:00,54.9,53.4,29.99,WSW,250,11.5,19.8,95,0.06,,OVC,0.13,VWS V14.00,2013-04-16 21:03:00,
2013-04-16 17:08:00,55.0,53.4,29.99,SW,224,15.8,19.8,94,0.06,,OVC,0.13,VWS V14.00,2013-04-16 21:08:00,
2013-04-16 17:13:00,54.8,53.1,29.99,WSW,242,6.6,19.8,94,0.05,,OVC,0.13,VWS V14.00,2013-04-16 21:13:00,
2013-04-16 17:18:00,54.9,53.2,29.99,SW,215,9.3,19.8,94,0.05,,OVC,0.13,VWS V14.00,2013-04-16 21:18:00,
2013-04-16 17:23:00,54.8,53.0,29.99,SSW,212,7.4,22.8,94,0.05,,OVC,0.13,VWS V14.00,2013-04-16 21:23:00,
2013-04-16 17:28:00,54.7,53.0,29.99,West,266,7.4,22.8,94,0.04,,OVC,0.13,VWS V14.00,2013-04-16 21:28:00,
2013-04-16 17:30:00,56.8,54.5,29.99,West,269,11.3,18.5,92,0.05,,SCT,0.08,VWS V14.00,2013-04-16 21:30:00,
2013-04-16 17:33:00,54.6,53.0,30.00,West,267,13.5,17.0,94,0.05,,OVC,0.14,VWS V14.00,2013-04-16 21:33:00,
2013-04-16 17:38:00,54.4,52.9,30.00,WSW,253,5.0,17.0,95,0.04,,OVC,0.14,VWS V14.00,2013-04-16 21:38:00,
2013-04-16 17:43:00,54.2,52.8,30.00,WSW,239,8.4,17.0,95,0.05,,OVC,0.15,VWS V14.00,2013-04-16 21:43:00,
2013-04-16 17:48:00,53.8,52.4,30.00,SW,228,12.8,17.0,95,0.05,,OVC,0.15,VWS V14.00,2013-04-16 21:48:00,
2013-04-16 17:53:00,53.8,52.4,30.01,WNW,284,8.0,17.0,95,0.04,,OVC,0.15,VWS V14.00,2013-04-16 21:53:00,
2013-04-16 17:58:00,53.5,52.0,30.01,WNW,284,10.1,17.0,95,0.04,,OVC,0.15,VWS V14.00,2013-04-16 21:58:00,
2013-04-16 18:00:00,54.7,53.2,29.99,SW,228,14.8,21.7,95,0.07,,SCT,0.13,VWS V14.00,2013-04-16 22:00:00,
2013-04-16 18:03:00,53.5,52.0,30.01,SW,229,10.3,12.8,94,0.05,,OVC,0.16,VWS V14.00,2013-04-16 22:03:00,
2013-04-16 18:08:00,53.3,51.8,30.00,WSW,252,5.7,12.8,94,0.04,,OVC,0.16,VWS V14.00,2013-04-16 22:08:00,
2013-04-16 18:13:00,53.3,51.8,30.00,SW,214,7.2,12.8,95,0.04,,OVC,0.16,VWS V14.00,2013-04-16 22:13:00,
2013-04-16 18:18:00,53.4,52.0,30.00,South,177,15.2,15.2,95,0.04,,OVC,0.17,VWS V14.00,2013-04-16 22:18:00,
2013-04-16 18:23:00,53.5,52.1,30.00,South,170,3.5,15.2,95,0.05,,OVC,0.18,VWS V14.00,2013-04-16 22:23:00,
2013-04-16 18:28:00,53.5,52.1,30.00,SSW,202,5.5,16.3,95,0.05,,OVC,0.18,VWS V14.00,2013-04-16 22:28:00,
2013-04-16 18:30:00,54.8,53.1,29.99,SW,228,12.6,22.8,94,0.05,,SCT,0.14,VWS V14.00,2013-04-16 22:30:00,
2013-04-16 18:33:00,53.4,51.8,30.01,SSW,205,8.7,14.7,94,0.04,,OVC,0.18,VWS V14.00,2013-04-16 22:33:00,
2013-04-16 18:38:00,53.5,51.5,30.02,SW,236,7.1,17.6,93,0.05,,OVC,0.19,VWS V14.00,2013-04-16 22:38:00,
2013-04-16 18:43:00,53.5,51.1,30.02,SW,231,12.8,17.6,92,0.05,,OVC,0.19,VWS V14.00,2013-04-16 22:43:00,
2013-04-16 18:48:00,53.4,50.7,30.02,SW,233,7.0,17.6,90,0.04,,OVC,0.19,VWS V14.00,2013-04-16 22:48:00,
2013-04-16 18:53:00,53.2,50.1,30.02,WSW,242,8.9,17.6,89,0.04,,OVC,0.19,VWS V14.00,2013-04-16 22:53:00,
2013-04-16 18:58:00,53.2,50.0,30.02,SW,236,8.5,18.1,89,0.04,,OVC,0.19,VWS V14.00,2013-04-16 22:58:00,
2013-04-16 19:00:00,53.6,52.1,30.01,SW,228,7.0,17.0,95,0.04,,SCT,0.15,VWS V14.00,2013-04-16 23:00:00,
2013-04-16 19:03:00,53.3,50.0,30.02,WSW,242,8.1,15.2,88,0.03,,OVC,0.19,VWS V14.00,2013-04-16 23:03:00,
2013-04-16 19:08:00,53.1,49.5,30.03,SSW,208,13.0,17.0,88,0.03,,OVC,0.19,VWS V14.00,2013-04-16 23:08:00,
2013-04-16 19:13:00,53.0,49.3,30.03,SW,232,7.2,17.0,87,0.03,,OVC,0.19,VWS V14.00,2013-04-16 23:13:00,
2013-04-16 19:18:00,53.0,49.4,30.04,West,259,7.7,17.0,88,0.03,,OVC,0.19,VWS V14.00,2013-04-16 23:18:00,
2013-04-16 19:23:00,52.6,49.2,30.04,WSW,256,8.5,17.0,88,0.02,,OVC,0.19,VWS V14.00,2013-04-16 23:23:00,
2013-04-16 19:28:00,52.3,48.9,30.05,WSW,242,13.7,18.0,88,0.02,,OVC,0.19,VWS V14.00,2013-04-16 23:28:00,
2013-04-16 19:30:00,53.4,52.0,30.00,SW,236,7.2,16.3,95,0.05,,SCT,0.18,VWS V14.00,2013-04-16 23:30:00,
2013-04-16 19:33:00,52.1,48.9,30.05,WSW,243,8.8,14.5,89,0.02,,OVC,0.19,VWS V14.00,2013-04-16 23:33:00,
2013-04-16 19:38:00,51.9,48.7,30.06,West,266,8.6,17.1,89,0.02,,OVC,0.19,VWS V14.00,2013-04-16 23:38:00,
2013-04-16 19:43:00,51.8,48.6,30.06,West,263,5.7,17.1,89,0.02,,FEW,0.19,VWS V14.00,2013-04-16 23:43:00,
2013-04-16 19:48:00,51.3,48.2,30.06,SSW,197,9.8,17.1,89,0.02,,FEW,0.19,VWS V14.00,2013-04-16 23:48:00,
2013-04-16 19:53:00,51.3,48.2,30.07,WNW,288,6.8,17.1,89,0.01,,FEW,0.19,VWS V14.00,2013-04-16 23:53:00,
2013-04-16 19:59:00,51.1,48.1,30.07,SW,214,6.5,6.5,89,0.01,,FEW,0.19,VWS V14.00,2013-04-16 23:59:00,
2013-04-16 20:00:00,53.3,50.1,30.02,WSW,245,7.1,18.1,89,0.04,,SCT,0.19,VWS V14.00,2013-04-17 00:00:00,
2013-04-16 20:04:00,50.8,47.7,30.08,WSW,257,5.5,11.0,89,0.01,,FEW,0.19,VWS V14.00,2013-04-17 00:04:00,
2013-04-16 20:09:00,50.7,47.7,30.08,SW,214,9.5,12.2,90,0.01,,FEW,0.19,VWS V14.00,2013-04-17 00:09:00,
2013-04-16 20:14:00,50.6,47.7,30.09,SSW,198,7.5,12.6,90,0.01,,FEW,0.19,VWS V14.00,2013-04-17 00:14:00,
2013-04-16 20:19:00,50.5,47.7,30.09,SW,222,6.4,12.6,90,0.01,,FEW,0.19,VWS V14.00,2013-04-17 00:19:00,
2013-04-16 20:24:00,50.4,47.5,30.09,SSW,212,3.4,12.6,90,0.01,,FEW,0.19,VWS V14.00,2013-04-17 00:24:00,
2013-04-16 20:29:00,50.1,47.3,30.10,WSW,252,5.3,6.0,90,0.01,,FEW,0.19,VWS V14.00,2013-04-17 00:29:00,
2013-04-16 20:30:00,52.2,48.8,30.05,WSW,240,12.2,18.0,88,0.02,,SCT,0.19,VWS V14.00,2013-04-17 00:30:00,
2013-04-16 20:34:00,49.9,47.1,30.11,WSW,245,4.6,11.4,90,0.01,,FEW,0.19,VWS V14.00,2013-04-17 00:34:00,
2013-04-16 20:39:00,49.5,46.8,30.11,WSW,245,6.1,12.5,90,0.01,,FEW,0.19,VWS V14.00,2013-04-17 00:39:00,
2013-04-16 20:44:00,49.5,46.7,30.11,WSW,246,4.4,12.5,90,0.01,,FEW,0.19,VWS V14.00,2013-04-17 00:44:00,
2013-04-16 20:49:00,49.2,46.5,30.12,SW,222,8.1,12.5,90,0.01,,FEW,0.19,VWS V14.00,2013-04-17 00:49:00,
2013-04-16 20:54:00,49.2,46.4,30.13,WSW,249,4.5,12.5,90,0.01,,FEW,0.19,VWS V14.00,2013-04-17 00:54:00,
2013-04-16 20:59:00,49.1,46.3,30.13,SW,218,3.8,4.0,90,0.00,,FEW,0.19,VWS V14.00,2013-04-17 00:59:00,
2013-04-16 21:00:00,51.1,48.1,30.07,WSW,257,6.5,17.1,89,0.01,,SCT,0.19,VWS V14.00,2013-04-17 01:00:00,
2013-04-16 21:04:00,48.9,46.2,30.13,WSW,255,5.6,10.4,90,0.00,,FEW,0.19,VWS V14.00,2013-04-17 01:04:00,
2013-04-16 21:09:00,48.7,45.9,30.14,SW,215,6.9,10.4,90,0.00,,FEW,0.19,VWS V14.00,2013-04-17 01:09:00,
2013-04-16 21:14:00,48.7,45.8,30.14,SSW,208,5.8,10.4,90,0.00,,FEW,0.19,VWS V14.00,2013-04-17 01:14:00,
2013-04-16 21:19:00,48.4,45.7,30.15,SSW,212,8.9,10.4,90,0.00,,FEW,0.19,VWS V14.00,2013-04-17 01:19:00,
2013-04-16 21:24:00,48.3,45.6,30.15,SSW,210,8.4,11.2,90,0.00,,FEW,0.19,VWS V14.00,2013-04-17 01:24:00,
2013-04-16 21:29:00,48.0,45.2,30.15,West,263,5.8,9.1,90,0.00,,FEW,0.19,VWS V14.00,2013-04-17 01:29:00,
2013-04-16 21:30:00,50.0,47.2,30.10,WSW,255,4.1,12.6,90,0.01,,SCT,0.19,VWS V14.00,2013-04-17 01:30:00,
2013-04-16 21:34:00,47.7,44.9,30.16,SSW,208,5.4,9.1,90,0.00,,FEW,0.19,VWS V14.00,2013-04-17 01:34:00,
2013-04-16 21:39:00,47.5,44.6,30.16,SW,225,8.7,13.3,90,0.00,,FEW,0.19,VWS V14.00,2013-04-17 01:39:00,
2013-04-16 21:44:00,47.5,44.6,30.17,SW,236,6.3,13.3,90,0.00,,FEW,0.19,VWS V14.00,2013-04-17 01:44:00,
2013-04-16 21:49:00,47.4,44.5,30.17,SW,236,2.5,13.3,90,0.00,,FEW,0.19,VWS V14.00,2013-04-17 01:49:00,
2013-04-16 21:54:00,47.3,44.4,30.18,SSW,201,3.8,13.3,90,0.00,,FEW,0.19,VWS V14.00,2013-04-17 01:54:00,
2013-04-16 21:59:00,47.1,44.2,30.18,NW,308,4.3,7.4,89,0.00,,FEW,0.19,VWS V14.00,2013-04-17 01:59:00,
2013-04-16 22:00:00,49.1,46.3,30.13,WSW,246,3.6,12.5,90,0.00,,SCT,0.19,VWS V14.00,2013-04-17 02:00:00,
2013-04-16 22:04:00,47.2,44.3,30.19,WNW,288,4.6,11.0,90,0.00,,FEW,0.19,VWS V14.00,2013-04-17 02:04:00,
2013-04-16 22:09:00,47.1,43.9,30.20,West,262,5.5,14.4,89,0.00,,FEW,0.19,VWS V14.00,2013-04-17 02:09:00,
2013-04-16 22:14:00,46.9,43.7,30.20,NW,314,0.0,14.4,89,0.00,,FEW,0.19,VWS V14.00,2013-04-17 02:14:00,
2013-04-16 22:19:00,46.7,43.7,30.20,NW,307,0.0,14.4,89,0.00,,FEW,0.19,VWS V14.00,2013-04-17 02:19:00,
2013-04-16 22:24:00,46.6,43.6,30.20,WSW,256,1.6,14.4,89,0.00,,FEW,0.19,VWS V14.00,2013-04-17 02:24:00,
2013-04-16 22:29:00,46.1,43.1,30.20,West,269,1.2,3.0,89,0.00,,FEW,0.19,VWS V14.00,2013-04-17 02:29:00,
2013-04-16 22:30:00,48.1,45.3,30.16,WSW,243,4.2,11.2,90,0.00,,SCT,0.19,VWS V14.00,2013-04-17 02:30:00,
2013-04-16 22:34:00,46.1,43.0,30.20,WNW,294,0.0,4.1,89,0.00,,FEW,0.19,VWS V14.00,2013-04-17 02:34:00,
2013-04-16 22:39:00,46.0,42.9,30.20,WSW,242,3.1,4.1,89,0.00,,FEW,0.19,VWS V14.00,2013-04-17 02:39:00,
2013-04-16 22:44:00,45.9,42.7,30.20,WNW,301,0.0,4.4,89,0.00,,FEW,0.19,VWS V14.00,2013-04-17 02:44:00,
2013-04-16 22:49:00,45.6,42.4,30.20,WNW,294,0.0,5.3,88,0.00,,FEW,0.19,VWS V14.00,2013-04-17 02:49:00,
2013-04-16 22:54:00,45.6,42.5,30.20,WNW,294,0.0,5.3,89,0.00,,FEW,0.19,VWS V14.00,2013-04-17 02:54:00,
2013-04-16 22:59:00,45.2,42.0,30.21,WNW,294,0.0,0.0,88,0.00,,FEW,0.19,VWS V14.00,2013-04-17 02:59:00,
2013-04-16 23:00:00,47.1,44.1,30.18,WNW,300,5.4,13.3,89,0.00,,SCT,0.19,VWS V14.00,2013-04-17 03:00:00,
2013-04-16 23:04:00,45.2,41.9,30.21,WNW,294,0.0,0.0,88,0.00,,FEW,0.19,VWS V14.00,2013-04-17 03:04:00,
2013-04-16 23:09:00,45.1,41.8,30.21,WSW,255,0.0,2.7,88,0.00,,FEW,0.19,VWS V14.00,2013-04-17 03:09:00,
2013-04-16 23:14:00,44.9,41.5,30.21,WSW,255,0.0,2.7,88,0.00,,FEW,0.19,VWS V14.00,2013-04-17 03:14:00,
2013-04-16 23:19:00,44.7,41.2,30.21,WSW,255,0.0,2.7,88,0.00,,FEW,0.19,VWS V14.00,2013-04-17 03:19:00,
2013-04-16 23:24:00,44.6,40.8,30.22,West,276,0.0,2.7,86,0.00,,FEW,0.19,VWS V14.00,2013-04-17 03:24:00,
2013-04-16 23:29:00,44.4,40.5,30.21,West,276,0.0,0.0,86,0.00,,FEW,0.19,VWS V14.00,2013-04-17 03:29:00,
2013-04-16 23:30:00,46.3,43.3,30.20,West,260,1.4,14.4,89,0.00,,SCT,0.19,VWS V14.00,2013-04-17 03:30:00,
2013-04-16 23:34:00,44.2,40.0,30.22,WNW,292,0.0,2.3,85,0.00,,FEW,0.19,VWS V14.00,2013-04-17 03:34:00,
2013-04-16 23:39:00,44.0,39.5,30.22,West,276,2.1,3.7,84,0.00,,FEW,0.19,VWS V14.00,2013-04-17 03:39:00,
2013-04-16 23:44:00,44.0,39.2,30.22,WSW,248,0.0,4.0,83,0.00,,FEW,0.19,VWS V14.00,2013-04-17 03:44:00,
2013-04-16 23:49:00,44.0,38.9,30.23,WSW,240,0.0,4.0,82,0.00,,FEW,0.19,VWS V14.00,2013-04-17 03:49:00,
2013-04-16 23:54:00,43.9,38.6,30.23,WSW,240,0.0,4.0,82,0.00,,FEW,0.19,VWS V14.00,2013-04-17 03:54:00,